sensor_id;sensor_type;location;lat;lon;timestamp;temperature;humidity
66140;DHT22;52945;51.908;8.364;2023-02-23T00:01:31;12.10;70.80
66140;DHT22;52945;51.908;8.364;2023-02-23T00:04:33;12.00;70.90
66140;DHT22;52945;51.908;8.364;2023-02-23T00:07:34;12.00;71.00
66140;DHT22;52945;51.908;8.364;2023-02-23T00:10:36;12.00;71.10
66140;DHT22;52945;51.908;8.364;2023-02-23T00:13:37;12.00;71.20
66140;DHT22;52945;51.908;8.364;2023-02-23T00:16:38;12.10;71.30
66140;DHT22;52945;51.908;8.364;2023-02-23T00:19:39;12.10;71.20
66140;DHT22;52945;51.908;8.364;2023-02-23T00:22:42;12.10;71.10
66140;DHT22;52945;51.908;8.364;2023-02-23T00:25:43;12.10;71.10
66140;DHT22;52945;51.908;8.364;2023-02-23T00:28:46;12.10;71.20
66140;DHT22;52945;51.908;8.364;2023-02-23T00:31:49;12.10;71.10
66140;DHT22;52945;51.908;8.364;2023-02-23T00:34:50;12.10;71.20
66140;DHT22;52945;51.908;8.364;2023-02-23T00:37:51;12.10;71.20
66140;DHT22;52945;51.908;8.364;2023-02-23T00:40:51;12.20;71.30
66140;DHT22;52945;51.908;8.364;2023-02-23T00:43:52;12.20;71.20
66140;DHT22;52945;51.908;8.364;2023-02-23T00:46:54;12.10;71.30
66140;DHT22;52945;51.908;8.364;2023-02-23T00:49:54;12.10;71.20
66140;DHT22;52945;51.908;8.364;2023-02-23T00:52:56;12.10;71.30
66140;DHT22;52945;51.908;8.364;2023-02-23T00:55:59;12.10;71.30
66140;DHT22;52945;51.908;8.364;2023-02-23T00:58:59;12.10;71.30
66140;DHT22;52945;51.908;8.364;2023-02-23T01:02:00;12.10;71.40
66140;DHT22;52945;51.908;8.364;2023-02-23T01:05:01;12.10;71.40
66140;DHT22;52945;51.908;8.364;2023-02-23T01:08:01;12.10;71.30
66140;DHT22;52945;51.908;8.364;2023-02-23T01:11:11;12.10;71.50
66140;DHT22;52945;51.908;8.364;2023-02-23T01:14:12;12.10;71.60
66140;DHT22;52945;51.908;8.364;2023-02-23T01:17:13;12.10;71.60
66140;DHT22;52945;51.908;8.364;2023-02-23T01:20:15;12.10;71.50
66140;DHT22;52945;51.908;8.364;2023-02-23T01:23:18;12.10;71.50
66140;DHT22;52945;51.908;8.364;2023-02-23T01:26:28;12.10;71.50
66140;DHT22;52945;51.908;8.364;2023-02-23T01:29:29;12.10;71.70
66140;DHT22;52945;51.908;8.364;2023-02-23T01:32:29;12.10;72.00
66140;DHT22;52945;51.908;8.364;2023-02-23T01:35:31;12.20;72.10
66140;DHT22;52945;51.908;8.364;2023-02-23T01:38:32;12.10;71.90
66140;DHT22;52945;51.908;8.364;2023-02-23T01:41:35;12.10;72.00
66140;DHT22;52945;51.908;8.364;2023-02-23T01:47:38;12.00;72.10
66140;DHT22;52945;51.908;8.364;2023-02-23T01:50:51;12.10;72.30
66140;DHT22;52945;51.908;8.364;2023-02-23T01:53:58;12.00;72.40
66140;DHT22;52945;51.908;8.364;2023-02-23T01:57:00;12.10;72.40
66140;DHT22;52945;51.908;8.364;2023-02-23T02:00:02;12.10;72.40
66140;DHT22;52945;51.908;8.364;2023-02-23T02:03:05;12.10;72.20
66140;DHT22;52945;51.908;8.364;2023-02-23T02:06:14;12.10;72.30
66140;DHT22;52945;51.908;8.364;2023-02-23T02:09:16;12.20;72.30
66140;DHT22;52945;51.908;8.364;2023-02-23T02:12:17;12.10;72.10
66140;DHT22;52945;51.908;8.364;2023-02-23T02:15:27;12.10;72.10
66140;DHT22;52945;51.908;8.364;2023-02-23T02:19:12;12.10;72.30
66140;DHT22;52945;51.908;8.364;2023-02-23T02:25:48;12.10;72.50
66140;DHT22;52945;51.908;8.364;2023-02-23T02:42:34;12.00;72.60
66140;DHT22;52945;51.908;8.364;2023-02-23T02:45:49;12.10;72.80
66140;DHT22;52945;51.908;8.364;2023-02-23T02:49:02;12.10;73.00
66140;DHT22;52945;51.908;8.364;2023-02-23T02:52:30;12.20;73.00
66140;DHT22;52945;51.908;8.364;2023-02-23T02:55:38;12.20;72.80
66140;DHT22;52945;51.908;8.364;2023-02-23T02:58:42;12.10;72.70
66140;DHT22;52945;51.908;8.364;2023-02-23T03:01:43;12.10;72.80
66140;DHT22;52945;51.908;8.364;2023-02-23T03:05:16;12.10;72.90
66140;DHT22;52945;51.908;8.364;2023-02-23T03:08:40;12.10;72.80
66140;DHT22;52945;51.908;8.364;2023-02-23T03:19:21;12.10;73.10
66140;DHT22;52945;51.908;8.364;2023-02-23T03:23:16;12.10;73.20
66140;DHT22;52945;51.908;8.364;2023-02-23T03:27:04;12.10;73.20
66140;DHT22;52945;51.908;8.364;2023-02-23T03:34:27;12.10;73.30
66140;DHT22;52945;51.908;8.364;2023-02-23T03:37:55;12.10;73.40
66140;DHT22;52945;51.908;8.364;2023-02-23T03:41:16;12.10;73.40
66140;DHT22;52945;51.908;8.364;2023-02-23T03:44:40;12.10;73.80
66140;DHT22;52945;51.908;8.364;2023-02-23T03:48:02;12.10;73.80
66140;DHT22;52945;51.908;8.364;2023-02-23T03:51:23;12.20;73.80
66140;DHT22;52945;51.908;8.364;2023-02-23T03:54:53;12.20;73.90
66140;DHT22;52945;51.908;8.364;2023-02-23T03:58:18;12.10;73.90
66140;DHT22;52945;51.908;8.364;2023-02-23T04:01:40;12.20;73.90
66140;DHT22;52945;51.908;8.364;2023-02-23T04:05:09;12.10;74.10
66140;DHT22;52945;51.908;8.364;2023-02-23T04:08:33;12.10;74.10
66140;DHT22;52945;51.908;8.364;2023-02-23T04:12:03;12.10;74.40
66140;DHT22;52945;51.908;8.364;2023-02-23T04:15:28;12.20;74.70
66140;DHT22;52945;51.908;8.364;2023-02-23T04:18:32;12.20;74.80
66140;DHT22;52945;51.908;8.364;2023-02-23T04:21:33;12.20;74.80
66140;DHT22;52945;51.908;8.364;2023-02-23T04:24:34;12.20;75.00
66140;DHT22;52945;51.908;8.364;2023-02-23T04:27:35;12.20;75.00
66140;DHT22;52945;51.908;8.364;2023-02-23T04:30:36;12.10;75.10
66140;DHT22;52945;51.908;8.364;2023-02-23T04:33:36;12.20;75.00
66140;DHT22;52945;51.908;8.364;2023-02-23T04:36:37;12.20;74.90
66140;DHT22;52945;51.908;8.364;2023-02-23T04:39:38;12.20;75.10
66140;DHT22;52945;51.908;8.364;2023-02-23T04:42:39;12.10;75.10
66140;DHT22;52945;51.908;8.364;2023-02-23T04:45:41;12.10;75.00
66140;DHT22;52945;51.908;8.364;2023-02-23T04:48:41;12.10;75.20
66140;DHT22;52945;51.908;8.364;2023-02-23T04:51:42;12.20;75.50
66140;DHT22;52945;51.908;8.364;2023-02-23T04:54:43;12.10;75.50
66140;DHT22;52945;51.908;8.364;2023-02-23T04:57:44;12.10;75.60
66140;DHT22;52945;51.908;8.364;2023-02-23T05:00:45;12.10;75.60
66140;DHT22;52945;51.908;8.364;2023-02-23T05:03:48;12.10;75.50
66140;DHT22;52945;51.908;8.364;2023-02-23T05:06:49;12.10;75.70
66140;DHT22;52945;51.908;8.364;2023-02-23T05:09:50;12.20;75.80
66140;DHT22;52945;51.908;8.364;2023-02-23T05:12:51;12.10;75.90
66140;DHT22;52945;51.908;8.364;2023-02-23T05:15:55;12.10;75.90
66140;DHT22;52945;51.908;8.364;2023-02-23T05:18:57;12.10;75.80
66140;DHT22;52945;51.908;8.364;2023-02-23T05:21:57;12.10;75.90
66140;DHT22;52945;51.908;8.364;2023-02-23T05:24:58;12.10;75.90
66140;DHT22;52945;51.908;8.364;2023-02-23T05:27:59;12.10;75.90
66140;DHT22;52945;51.908;8.364;2023-02-23T05:31:00;12.10;75.80
66140;DHT22;52945;51.908;8.364;2023-02-23T05:34:02;12.10;75.80
66140;DHT22;52945;51.908;8.364;2023-02-23T05:37:03;12.10;75.90
66140;DHT22;52945;51.908;8.364;2023-02-23T05:40:05;12.10;75.90
66140;DHT22;52945;51.908;8.364;2023-02-23T05:43:06;12.10;75.90
66140;DHT22;52945;51.908;8.364;2023-02-23T05:46:11;12.10;76.00
66140;DHT22;52945;51.908;8.364;2023-02-23T05:49:13;12.10;75.70
66140;DHT22;52945;51.908;8.364;2023-02-23T05:52:14;12.10;75.70
66140;DHT22;52945;51.908;8.364;2023-02-23T05:55:14;12.10;75.60
66140;DHT22;52945;51.908;8.364;2023-02-23T05:58:15;12.10;75.50
66140;DHT22;52945;51.908;8.364;2023-02-23T06:01:16;12.10;75.70
66140;DHT22;52945;51.908;8.364;2023-02-23T06:04:17;12.10;75.70
66140;DHT22;52945;51.908;8.364;2023-02-23T06:07:18;12.10;75.70
66140;DHT22;52945;51.908;8.364;2023-02-23T06:10:19;12.10;75.80
66140;DHT22;52945;51.908;8.364;2023-02-23T06:13:19;12.10;75.80
66140;DHT22;52945;51.908;8.364;2023-02-23T06:16:23;12.10;75.50
66140;DHT22;52945;51.908;8.364;2023-02-23T06:19:24;12.00;75.30
66140;DHT22;52945;51.908;8.364;2023-02-23T06:22:24;12.00;75.30
66140;DHT22;52945;51.908;8.364;2023-02-23T06:25:25;12.10;75.40
66140;DHT22;52945;51.908;8.364;2023-02-23T06:28:27;12.10;75.50
66140;DHT22;52945;51.908;8.364;2023-02-23T06:31:27;12.10;75.60
66140;DHT22;52945;51.908;8.364;2023-02-23T06:34:28;12.10;75.80
66140;DHT22;52945;51.908;8.364;2023-02-23T06:37:29;12.10;75.90
66140;DHT22;52945;51.908;8.364;2023-02-23T06:40:29;12.10;75.90
66140;DHT22;52945;51.908;8.364;2023-02-23T06:43:30;12.10;75.80
66140;DHT22;52945;51.908;8.364;2023-02-23T06:46:31;12.10;75.80
66140;DHT22;52945;51.908;8.364;2023-02-23T06:49:33;12.00;76.00
66140;DHT22;52945;51.908;8.364;2023-02-23T06:52:33;12.00;76.00
66140;DHT22;52945;51.908;8.364;2023-02-23T06:55:34;12.00;76.10
66140;DHT22;52945;51.908;8.364;2023-02-23T06:58:34;12.10;76.20
66140;DHT22;52945;51.908;8.364;2023-02-23T07:01:35;12.00;76.30
66140;DHT22;52945;51.908;8.364;2023-02-23T07:04:35;12.00;76.20
66140;DHT22;52945;51.908;8.364;2023-02-23T07:07:37;12.00;76.30
66140;DHT22;52945;51.908;8.364;2023-02-23T07:10:37;12.00;76.40
66140;DHT22;52945;51.908;8.364;2023-02-23T07:13:39;12.00;76.50
66140;DHT22;52945;51.908;8.364;2023-02-23T07:16:39;12.00;76.60
66140;DHT22;52945;51.908;8.364;2023-02-23T07:19:40;12.00;76.60
66140;DHT22;52945;51.908;8.364;2023-02-23T07:22:41;12.00;76.60
66140;DHT22;52945;51.908;8.364;2023-02-23T07:25:41;12.00;76.60
66140;DHT22;52945;51.908;8.364;2023-02-23T07:28:42;12.00;76.60
66140;DHT22;52945;51.908;8.364;2023-02-23T07:31:43;12.00;76.60
66140;DHT22;52945;51.908;8.364;2023-02-23T07:34:44;12.00;76.50
66140;DHT22;52945;51.908;8.364;2023-02-23T07:37:47;12.00;76.50
66140;DHT22;52945;51.908;8.364;2023-02-23T07:40:49;12.00;76.40
66140;DHT22;52945;51.908;8.364;2023-02-23T07:43:49;12.00;76.50
66140;DHT22;52945;51.908;8.364;2023-02-23T07:46:50;11.90;76.50
66140;DHT22;52945;51.908;8.364;2023-02-23T07:49:52;12.00;76.40
66140;DHT22;52945;51.908;8.364;2023-02-23T07:52:52;12.00;76.50
66140;DHT22;52945;51.908;8.364;2023-02-23T07:55:57;12.00;76.70
66140;DHT22;52945;51.908;8.364;2023-02-23T07:58:57;12.00;76.70
66140;DHT22;52945;51.908;8.364;2023-02-23T08:01:58;12.00;76.90
66140;DHT22;52945;51.908;8.364;2023-02-23T08:04:58;12.00;76.90
66140;DHT22;52945;51.908;8.364;2023-02-23T08:07:59;12.00;77.00
66140;DHT22;52945;51.908;8.364;2023-02-23T08:11:04;11.90;76.80
66140;DHT22;52945;51.908;8.364;2023-02-23T08:14:04;12.00;76.80
66140;DHT22;52945;51.908;8.364;2023-02-23T08:17:05;12.00;76.90
66140;DHT22;52945;51.908;8.364;2023-02-23T08:20:06;11.90;77.00
66140;DHT22;52945;51.908;8.364;2023-02-23T08:23:07;12.00;77.10
66140;DHT22;52945;51.908;8.364;2023-02-23T08:26:07;11.90;77.10
66140;DHT22;52945;51.908;8.364;2023-02-23T08:29:09;12.00;77.00
66140;DHT22;52945;51.908;8.364;2023-02-23T08:32:10;12.00;76.90
66140;DHT22;52945;51.908;8.364;2023-02-23T08:35:10;12.00;77.10
66140;DHT22;52945;51.908;8.364;2023-02-23T08:38:11;11.90;76.90
66140;DHT22;52945;51.908;8.364;2023-02-23T08:41:12;12.00;76.80
66140;DHT22;52945;51.908;8.364;2023-02-23T08:44:12;11.90;76.90
66140;DHT22;52945;51.908;8.364;2023-02-23T08:47:13;12.00;76.90
66140;DHT22;52945;51.908;8.364;2023-02-23T08:50:15;11.90;76.90
66140;DHT22;52945;51.908;8.364;2023-02-23T08:53:16;11.90;76.90
66140;DHT22;52945;51.908;8.364;2023-02-23T08:56:18;12.00;76.90
66140;DHT22;52945;51.908;8.364;2023-02-23T08:59:18;11.90;76.90
66140;DHT22;52945;51.908;8.364;2023-02-23T09:02:19;12.00;77.00
66140;DHT22;52945;51.908;8.364;2023-02-23T09:05:20;11.90;77.10
66140;DHT22;52945;51.908;8.364;2023-02-23T09:08:21;11.90;77.00
66140;DHT22;52945;51.908;8.364;2023-02-23T09:11:22;12.00;77.20
66140;DHT22;52945;51.908;8.364;2023-02-23T09:14:23;11.90;77.30
66140;DHT22;52945;51.908;8.364;2023-02-23T09:17:23;11.90;77.20
66140;DHT22;52945;51.908;8.364;2023-02-23T09:20:25;11.90;77.10
66140;DHT22;52945;51.908;8.364;2023-02-23T09:23:29;11.90;77.10
66140;DHT22;52945;51.908;8.364;2023-02-23T09:26:29;11.90;77.10
66140;DHT22;52945;51.908;8.364;2023-02-23T09:29:32;11.90;77.20
66140;DHT22;52945;51.908;8.364;2023-02-23T09:32:32;11.90;77.30
66140;DHT22;52945;51.908;8.364;2023-02-23T09:35:34;11.90;77.30
66140;DHT22;52945;51.908;8.364;2023-02-23T09:38:35;12.00;77.40
66140;DHT22;52945;51.908;8.364;2023-02-23T09:45:21;11.90;77.50
66140;DHT22;52945;51.908;8.364;2023-02-23T09:48:25;11.90;77.60
66140;DHT22;52945;51.908;8.364;2023-02-23T09:51:27;11.90;77.70
66140;DHT22;52945;51.908;8.364;2023-02-23T09:54:33;11.90;77.70
66140;DHT22;52945;51.908;8.364;2023-02-23T09:57:41;11.90;77.50
66140;DHT22;52945;51.908;8.364;2023-02-23T10:00:46;11.90;77.60
66140;DHT22;52945;51.908;8.364;2023-02-23T10:13:42;11.90;77.90
66140;DHT22;52945;51.908;8.364;2023-02-23T10:16:53;11.90;77.80
66140;DHT22;52945;51.908;8.364;2023-02-23T10:23:14;11.90;77.90
66140;DHT22;52945;51.908;8.364;2023-02-23T10:26:17;11.90;77.90
66140;DHT22;52945;51.908;8.364;2023-02-23T10:29:26;11.90;78.10
66140;DHT22;52945;51.908;8.364;2023-02-23T10:35:57;11.90;78.20
66140;DHT22;52945;51.908;8.364;2023-02-23T10:39:00;11.90;78.10
66140;DHT22;52945;51.908;8.364;2023-02-23T10:42:03;11.90;78.10
66140;DHT22;52945;51.908;8.364;2023-02-23T10:45:15;11.90;78.20
66140;DHT22;52945;51.908;8.364;2023-02-23T10:48:33;12.00;78.10
66140;DHT22;52945;51.908;8.364;2023-02-23T10:51:36;12.00;78.00
66140;DHT22;52945;51.908;8.364;2023-02-23T10:57:44;11.90;77.70
66140;DHT22;52945;51.908;8.364;2023-02-23T11:03:54;11.90;77.80
66140;DHT22;52945;51.908;8.364;2023-02-23T11:07:15;12.00;77.90
66140;DHT22;52945;51.908;8.364;2023-02-23T11:10:25;11.90;77.90
66140;DHT22;52945;51.908;8.364;2023-02-23T11:13:30;11.90;77.90
66140;DHT22;52945;51.908;8.364;2023-02-23T11:16:38;12.00;78.00
66140;DHT22;52945;51.908;8.364;2023-02-23T11:19:40;12.00;78.00
66140;DHT22;52945;51.908;8.364;2023-02-23T11:22:41;12.00;78.10
66140;DHT22;52945;51.908;8.364;2023-02-23T11:25:42;12.00;78.00
66140;DHT22;52945;51.908;8.364;2023-02-23T11:28:43;11.90;78.00
66140;DHT22;52945;51.908;8.364;2023-02-23T11:31:49;12.00;78.10
66140;DHT22;52945;51.908;8.364;2023-02-23T11:35:13;12.00;78.10
66140;DHT22;52945;51.908;8.364;2023-02-23T11:38:28;12.00;78.30
66140;DHT22;52945;51.908;8.364;2023-02-23T11:41:29;12.00;78.40
66140;DHT22;52945;51.908;8.364;2023-02-23T11:44:32;11.90;78.10
66140;DHT22;52945;51.908;8.364;2023-02-23T11:47:37;11.90;78.10
66140;DHT22;52945;51.908;8.364;2023-02-23T11:50:44;12.00;78.20
66140;DHT22;52945;51.908;8.364;2023-02-23T11:53:46;12.00;78.40
66140;DHT22;52945;51.908;8.364;2023-02-23T11:56:48;12.00;78.40
66140;DHT22;52945;51.908;8.364;2023-02-23T11:59:57;12.00;78.40
66140;DHT22;52945;51.908;8.364;2023-02-23T12:02:59;12.00;78.50
66140;DHT22;52945;51.908;8.364;2023-02-23T12:06:00;12.00;78.60
66140;DHT22;52945;51.908;8.364;2023-02-23T12:09:27;11.90;78.30
66140;DHT22;52945;51.908;8.364;2023-02-23T12:12:30;11.90;78.30
66140;DHT22;52945;51.908;8.364;2023-02-23T12:15:53;11.90;78.30
66140;DHT22;52945;51.908;8.364;2023-02-23T12:18:58;11.90;78.40
66140;DHT22;52945;51.908;8.364;2023-02-23T12:22:01;11.90;78.40
66140;DHT22;52945;51.908;8.364;2023-02-23T12:25:10;11.90;78.60
66140;DHT22;52945;51.908;8.364;2023-02-23T12:28:24;11.80;78.50
66140;DHT22;52945;51.908;8.364;2023-02-23T12:31:52;11.90;78.60
66140;DHT22;52945;51.908;8.364;2023-02-23T12:34:57;11.80;78.50
66140;DHT22;52945;51.908;8.364;2023-02-23T12:38:12;11.80;78.50
66140;DHT22;52945;51.908;8.364;2023-02-23T12:41:34;11.80;78.70
66140;DHT22;52945;51.908;8.364;2023-02-23T12:48:09;11.80;78.80
66140;DHT22;52945;51.908;8.364;2023-02-23T12:54:27;11.80;78.60
66140;DHT22;52945;51.908;8.364;2023-02-23T12:57:54;11.90;78.60
66140;DHT22;52945;51.908;8.364;2023-02-23T13:07:41;11.90;78.30
66140;DHT22;52945;51.908;8.364;2023-02-23T13:18:01;11.80;78.20
66140;DHT22;52945;51.908;8.364;2023-02-23T13:24:35;11.80;78.30
66140;DHT22;52945;51.908;8.364;2023-02-23T13:27:41;11.80;78.20
66140;DHT22;52945;51.908;8.364;2023-02-23T13:30:42;11.80;78.10
66140;DHT22;52945;51.908;8.364;2023-02-23T13:33:47;11.80;77.90
66140;DHT22;52945;51.908;8.364;2023-02-23T13:36:48;11.80;78.30
66140;DHT22;52945;51.908;8.364;2023-02-23T13:43:05;11.80;78.30
66140;DHT22;52945;51.908;8.364;2023-02-23T13:49:41;11.70;78.30
66140;DHT22;52945;51.908;8.364;2023-02-23T13:52:46;11.70;78.30
66140;DHT22;52945;51.908;8.364;2023-02-23T13:55:48;11.70;78.20
66140;DHT22;52945;51.908;8.364;2023-02-23T13:59:02;11.70;78.10
66140;DHT22;52945;51.908;8.364;2023-02-23T14:02:38;11.70;78.20
66140;DHT22;52945;51.908;8.364;2023-02-23T14:05:43;11.70;78.10
66140;DHT22;52945;51.908;8.364;2023-02-23T14:08:50;11.60;78.10
66140;DHT22;52945;51.908;8.364;2023-02-23T14:12:21;11.60;77.50
66140;DHT22;52945;51.908;8.364;2023-02-23T14:18:29;11.60;77.90
66140;DHT22;52945;51.908;8.364;2023-02-23T14:21:40;11.50;77.60
66140;DHT22;52945;51.908;8.364;2023-02-23T14:24:42;11.50;78.00
66140;DHT22;52945;51.908;8.364;2023-02-23T14:27:43;11.50;78.00
66140;DHT22;52945;51.908;8.364;2023-02-23T14:30:47;11.50;78.20
66140;DHT22;52945;51.908;8.364;2023-02-23T14:33:55;11.50;78.10
66140;DHT22;52945;51.908;8.364;2023-02-23T14:40:41;11.50;78.10
66140;DHT22;52945;51.908;8.364;2023-02-23T14:43:43;11.40;78.00
66140;DHT22;52945;51.908;8.364;2023-02-23T14:47:06;11.40;78.00
66140;DHT22;52945;51.908;8.364;2023-02-23T14:50:12;11.40;77.80
66140;DHT22;52945;51.908;8.364;2023-02-23T14:53:21;11.30;77.80
66140;DHT22;52945;51.908;8.364;2023-02-23T14:56:23;11.30;77.80
66140;DHT22;52945;51.908;8.364;2023-02-23T14:59:37;11.20;77.50
66140;DHT22;52945;51.908;8.364;2023-02-23T15:02:38;11.20;77.80
66140;DHT22;52945;51.908;8.364;2023-02-23T15:05:45;11.20;77.80
66140;DHT22;52945;51.908;8.364;2023-02-23T15:08:46;11.20;78.00
66140;DHT22;52945;51.908;8.364;2023-02-23T15:11:49;11.10;77.90
66140;DHT22;52945;51.908;8.364;2023-02-23T15:14:58;11.10;77.60
66140;DHT22;52945;51.908;8.364;2023-02-23T15:18:02;11.10;77.90
66140;DHT22;52945;51.908;8.364;2023-02-23T15:21:16;11.10;78.30
66140;DHT22;52945;51.908;8.364;2023-02-23T15:24:21;11.10;78.10
66140;DHT22;52945;51.908;8.364;2023-02-23T15:27:39;11.00;77.90
66140;DHT22;52945;51.908;8.364;2023-02-23T15:30:46;11.00;77.90
66140;DHT22;52945;51.908;8.364;2023-02-23T15:33:47;11.00;77.90
66140;DHT22;52945;51.908;8.364;2023-02-23T15:37:05;11.00;78.10
66140;DHT22;52945;51.908;8.364;2023-02-23T15:40:15;11.00;78.00
66140;DHT22;52945;51.908;8.364;2023-02-23T15:43:16;11.00;78.10
66140;DHT22;52945;51.908;8.364;2023-02-23T15:46:25;10.90;78.20
66140;DHT22;52945;51.908;8.364;2023-02-23T15:49:31;10.90;78.30
66140;DHT22;52945;51.908;8.364;2023-02-23T15:52:33;10.90;78.20
66140;DHT22;52945;51.908;8.364;2023-02-23T15:55:36;10.90;78.30
66140;DHT22;52945;51.908;8.364;2023-02-23T15:58:39;10.90;78.10
66140;DHT22;52945;51.908;8.364;2023-02-23T16:01:44;10.80;78.50
66140;DHT22;52945;51.908;8.364;2023-02-23T16:04:46;10.80;78.50
66140;DHT22;52945;51.908;8.364;2023-02-23T16:08:24;10.80;78.70
66140;DHT22;52945;51.908;8.364;2023-02-23T16:11:26;10.80;78.70
66140;DHT22;52945;51.908;8.364;2023-02-23T16:17:47;10.80;78.50
66140;DHT22;52945;51.908;8.364;2023-02-23T16:20:54;10.70;78.50
66140;DHT22;52945;51.908;8.364;2023-02-23T16:23:56;10.80;78.40
66140;DHT22;52945;51.908;8.364;2023-02-23T16:27:01;10.70;78.30
66140;DHT22;52945;51.908;8.364;2023-02-23T16:33:21;10.70;78.40
66140;DHT22;52945;51.908;8.364;2023-02-23T16:36:24;10.70;78.60
66140;DHT22;52945;51.908;8.364;2023-02-23T16:39:32;10.70;78.50
66140;DHT22;52945;51.908;8.364;2023-02-23T16:42:34;10.70;78.30
66140;DHT22;52945;51.908;8.364;2023-02-23T16:45:35;10.70;78.40
66140;DHT22;52945;51.908;8.364;2023-02-23T16:48:36;10.70;78.30
66140;DHT22;52945;51.908;8.364;2023-02-23T16:51:36;10.60;78.40
66140;DHT22;52945;51.908;8.364;2023-02-23T16:54:37;10.70;78.50
66140;DHT22;52945;51.908;8.364;2023-02-23T16:57:39;10.60;78.40
66140;DHT22;52945;51.908;8.364;2023-02-23T17:00:40;10.70;78.50
66140;DHT22;52945;51.908;8.364;2023-02-23T17:03:42;10.60;78.40
66140;DHT22;52945;51.908;8.364;2023-02-23T17:06:44;10.60;78.60
66140;DHT22;52945;51.908;8.364;2023-02-23T17:09:46;10.60;78.50
66140;DHT22;52945;51.908;8.364;2023-02-23T17:12:47;10.60;78.60
66140;DHT22;52945;51.908;8.364;2023-02-23T17:15:50;10.60;78.60
66140;DHT22;52945;51.908;8.364;2023-02-23T17:18:52;10.60;78.80
66140;DHT22;52945;51.908;8.364;2023-02-23T17:21:53;10.60;78.50
66140;DHT22;52945;51.908;8.364;2023-02-23T17:24:54;10.60;78.60
66140;DHT22;52945;51.908;8.364;2023-02-23T17:27:55;10.50;78.80
66140;DHT22;52945;51.908;8.364;2023-02-23T17:30:56;10.60;78.70
66140;DHT22;52945;51.908;8.364;2023-02-23T17:33:57;10.50;78.80
66140;DHT22;52945;51.908;8.364;2023-02-23T17:36:58;10.60;78.70
66140;DHT22;52945;51.908;8.364;2023-02-23T17:39:59;10.50;78.80
66140;DHT22;52945;51.908;8.364;2023-02-23T17:43:01;10.50;78.80
66140;DHT22;52945;51.908;8.364;2023-02-23T17:46:03;10.50;78.60
66140;DHT22;52945;51.908;8.364;2023-02-23T17:49:04;10.50;79.00
66140;DHT22;52945;51.908;8.364;2023-02-23T17:52:04;10.50;78.90
66140;DHT22;52945;51.908;8.364;2023-02-23T17:55:06;10.50;78.80
66140;DHT22;52945;51.908;8.364;2023-02-23T17:58:08;10.50;78.90
66140;DHT22;52945;51.908;8.364;2023-02-23T18:01:08;10.50;79.00
66140;DHT22;52945;51.908;8.364;2023-02-23T18:04:09;10.50;79.00
66140;DHT22;52945;51.908;8.364;2023-02-23T18:07:10;10.50;78.90
66140;DHT22;52945;51.908;8.364;2023-02-23T18:10:11;10.50;79.10
66140;DHT22;52945;51.908;8.364;2023-02-23T18:13:12;10.50;79.20
66140;DHT22;52945;51.908;8.364;2023-02-23T18:16:14;10.50;79.20
66140;DHT22;52945;51.908;8.364;2023-02-23T18:19:15;10.50;79.10
66140;DHT22;52945;51.908;8.364;2023-02-23T18:22:16;10.50;79.20
66140;DHT22;52945;51.908;8.364;2023-02-23T18:25:25;10.50;79.10
66140;DHT22;52945;51.908;8.364;2023-02-23T18:28:26;10.40;78.90
66140;DHT22;52945;51.908;8.364;2023-02-23T18:31:26;10.40;79.00
66140;DHT22;52945;51.908;8.364;2023-02-23T18:34:28;10.40;79.00
66140;DHT22;52945;51.908;8.364;2023-02-23T18:37:29;10.50;79.10
66140;DHT22;52945;51.908;8.364;2023-02-23T18:40:30;10.40;78.70
66140;DHT22;52945;51.908;8.364;2023-02-23T18:43:30;10.40;78.90
66140;DHT22;52945;51.908;8.364;2023-02-23T18:46:31;10.40;78.90
66140;DHT22;52945;51.908;8.364;2023-02-23T18:49:32;10.40;78.90
66140;DHT22;52945;51.908;8.364;2023-02-23T18:52:33;10.40;78.80
66140;DHT22;52945;51.908;8.364;2023-02-23T18:55:36;10.40;79.00
66140;DHT22;52945;51.908;8.364;2023-02-23T18:58:37;10.40;79.00
66140;DHT22;52945;51.908;8.364;2023-02-23T19:01:38;10.30;79.00
66140;DHT22;52945;51.908;8.364;2023-02-23T19:04:38;10.40;79.10
66140;DHT22;52945;51.908;8.364;2023-02-23T19:07:40;10.40;79.30
66140;DHT22;52945;51.908;8.364;2023-02-23T19:10:40;10.40;78.80
66140;DHT22;52945;51.908;8.364;2023-02-23T19:13:41;10.30;79.00
66140;DHT22;52945;51.908;8.364;2023-02-23T19:16:42;10.30;79.10
66140;DHT22;52945;51.908;8.364;2023-02-23T19:19:43;10.30;79.20
66140;DHT22;52945;51.908;8.364;2023-02-23T19:22:43;10.30;79.20
66140;DHT22;52945;51.908;8.364;2023-02-23T19:25:47;10.30;79.30
66140;DHT22;52945;51.908;8.364;2023-02-23T19:28:48;10.30;79.30
66140;DHT22;52945;51.908;8.364;2023-02-23T19:31:49;10.20;79.10
66140;DHT22;52945;51.908;8.364;2023-02-23T19:34:49;10.30;79.10
66140;DHT22;52945;51.908;8.364;2023-02-23T19:37:51;10.20;79.10
66140;DHT22;52945;51.908;8.364;2023-02-23T19:40:52;10.30;78.90
66140;DHT22;52945;51.908;8.364;2023-02-23T19:43:53;10.20;78.90
66140;DHT22;52945;51.908;8.364;2023-02-23T19:46:53;10.20;78.90
66140;DHT22;52945;51.908;8.364;2023-02-23T19:49:54;10.20;79.00
66140;DHT22;52945;51.908;8.364;2023-02-23T19:52:55;10.20;79.00
66140;DHT22;52945;51.908;8.364;2023-02-23T19:56:03;10.20;78.90
66140;DHT22;52945;51.908;8.364;2023-02-23T19:59:04;10.20;79.00
66140;DHT22;52945;51.908;8.364;2023-02-23T20:02:05;10.20;79.10
66140;DHT22;52945;51.908;8.364;2023-02-23T20:05:06;10.20;79.00
66140;DHT22;52945;51.908;8.364;2023-02-23T20:08:08;10.20;79.00
66140;DHT22;52945;51.908;8.364;2023-02-23T20:11:10;10.20;79.10
66140;DHT22;52945;51.908;8.364;2023-02-23T20:14:11;10.20;79.00
66140;DHT22;52945;51.908;8.364;2023-02-23T20:17:11;10.20;79.00
66140;DHT22;52945;51.908;8.364;2023-02-23T20:20:13;10.20;79.10
66140;DHT22;52945;51.908;8.364;2023-02-23T20:23:13;10.20;79.30
66140;DHT22;52945;51.908;8.364;2023-02-23T20:26:21;10.20;79.00
66140;DHT22;52945;51.908;8.364;2023-02-23T20:29:21;10.00;78.30
66140;DHT22;52945;51.908;8.364;2023-02-23T20:32:22;10.00;78.70
66140;DHT22;52945;51.908;8.364;2023-02-23T20:35:23;9.80;77.40
66140;DHT22;52945;51.908;8.364;2023-02-23T20:38:25;9.80;77.60
66140;DHT22;52945;51.908;8.364;2023-02-23T20:41:26;9.70;77.30
66140;DHT22;52945;51.908;8.364;2023-02-23T20:44:27;9.60;77.80
66140;DHT22;52945;51.908;8.364;2023-02-23T20:47:29;9.40;77.30
66140;DHT22;52945;51.908;8.364;2023-02-23T20:50:30;9.30;77.20
66140;DHT22;52945;51.908;8.364;2023-02-23T20:53:33;9.30;76.80
66140;DHT22;52945;51.908;8.364;2023-02-23T20:56:33;9.20;77.50
66140;DHT22;52945;51.908;8.364;2023-02-23T20:59:35;9.20;77.80
66140;DHT22;52945;51.908;8.364;2023-02-23T21:02:36;9.20;77.20
66140;DHT22;52945;51.908;8.364;2023-02-23T21:05:37;9.20;77.20
66140;DHT22;52945;51.908;8.364;2023-02-23T21:08:41;9.10;77.10
66140;DHT22;52945;51.908;8.364;2023-02-23T21:11:46;9.10;77.20